• Join FlightAware (Why Join?)
  • Login
  • US Flag 
01:36AM EST


 

Airport Tracker/Info


-or-


 

Live Flight TrackerFlight Track Log ✈ N662US ✈ 09-Jun-2013 ✈ KJFK - RJAA / NRT

Flight Track Log - Related Links

Times and Time Zones

All times are in EDT time to prevent confusion due to time zone crossing. See the N662US flight status page for this flight to view local times or setup timezone preferences in your user account.

Time Position Orientation Groundspeed Altitude Reporting Facility
EDT Latitude Longitude Course Direction KTS MPH feet Rate Location/Type
02:17PM 40.6400 -73.7830 North 10 12  Level FlightAware
02:20PM 40.6400 -73.7840 270° West 9 10  Level FlightAware
02:21PM 40.6400 -73.7830 90° East 11 13  Level FlightAware
02:22PM 40.6390 -73.7830 180° South 12 14  Level FlightAware
02:22PM 40.6380 -73.7830 180° South 10 12  Level FlightAware
02:25PM 40.9026 -73.9795 333° Northwest  Level FlightAware Approximate
02:26PM 41.0248 -74.0550 327° Northwest  Level FlightAware Approximate
02:27PM 41.1384 -74.1525 339° North  Level FlightAware Approximate
02:27PM 40.6370 -73.7830 323° Northwest 11 13  Level FlightAware
02:28PM 41.2560 -74.2393 323° Northwest  Level FlightAware Approximate
02:28PM 40.6360 -73.7830 180° South 11 13  Level FlightAware
02:29PM 40.6350 -73.7830 180° South 13 15  Level FlightAware
02:30PM 40.6360 -73.7850 303° West 21 24  Level FlightAware
02:30PM 40.6370 -73.7860 323° Northwest 23 26  Level FlightAware
02:31PM 40.6380 -73.7880 303° West 25 29  Level FlightAware
02:32PM 40.6390 -73.7900 303° West 23 26  Level FlightAware
02:33PM 40.6400 -73.7920 303° West 25 29  Level FlightAware
02:33PM 40.6400 -73.7940 270° West 25 29  Level FlightAware
02:34PM 40.6440 -73.7950 349° North 26 30  Level FlightAware
02:34PM 40.6420 -73.7970 217° Southwest 28 32  Level FlightAware
02:35PM 40.6450 -73.7980 346° North 30 35  Level FlightAware
02:36PM 40.6450 -73.8020 270° West 19 22  Level FlightAware
02:37PM 40.6450 -73.8030 270° West  Level FlightAware
02:38PM 40.6450 -73.8020 323° Northwest  Level FlightAware
02:39PM 40.8764 -73.9597 323° Northwest  Level FlightAware Approximate
02:40PM 40.6450 -73.8030 270° West  Level FlightAware
02:42PM 40.6450 -73.8020 90° East  Level FlightAware
02:45PM 40.9434 -74.0050 339° North  Level FlightAware Approximate
02:46PM 41.0625 -74.0879 327° Northwest  Level FlightAware Approximate
02:46PM 40.6450 -73.8030 327° Northwest  Level FlightAware
02:49PM 40.9228 -73.9929 333° Northwest  Level FlightAware Approximate
02:50PM 41.0437 -74.0715 327° Northwest  Level FlightAware Approximate
02:51PM 41.1595 -74.1631 339° North  Level FlightAware Approximate
02:52PM 41.2740 -74.2573 323° Northwest  Level FlightAware Approximate
02:53PM 41.3881 -74.3500 North  Level FlightAware Approximate
02:54PM 41.4594 -74.4940 300° West  Level FlightAware Approximate
02:55PM 41.5288 -74.6489 297° West  Level FlightAware Approximate
02:56PM 41.5931 -74.8028 304° West  Level FlightAware Approximate
02:56PM 40.6420 -73.7990 123° Southeast 16 18  Level FlightAware
02:56PM 40.6410 -73.7970 123° Southeast 17 20  Level FlightAware
02:57PM 40.6390 -73.7930 123° Southeast 18 21  Level FlightAware
02:57PM 40.6380 -73.7910 123° Southeast 18 21  Level FlightAware
02:58PM 40.6360 -73.7870 123° Southeast 28 32  Level FlightAware
02:59PM 40.6350 -73.7840 114° Southeast 27 31  Level FlightAware
03:00PM 40.6350 -73.7830 90° East 20 23  Level FlightAware
03:02PM 40.8419 -73.9293 339° North  Level FlightAware Approximate
03:03PM 40.9543 -74.0105 339° North  Level FlightAware Approximate
03:04PM 41.0668 -74.0917 327° Northwest  Level FlightAware Approximate
03:05PM 41.1787 -74.1747 333° Northwest  Level FlightAware Approximate
03:05PM 40.6370 -73.7830 333° Northwest 19 22  Level FlightAware
03:06PM 40.6390 -73.7830 360° North 28 32  Level FlightAware
03:06PM 40.6400 -73.7830 360° North 16 18  Level FlightAware
03:07PM 40.6400 -73.7820 90° East 10 12  Level FlightAware
03:09PM 40.8448 -73.9307 339° North  Level FlightAware Approximate
03:10PM 40.9571 -74.0119 339° North  Level FlightAware Approximate
03:11PM 41.0693 -74.0939 327° Northwest  Level FlightAware Approximate
03:12PM 41.1814 -74.1765 333° Northwest  Level FlightAware Approximate
03:13PM 41.2889 -74.2695 339° North  Level FlightAware Approximate
03:14PM 41.3992 -74.3500 North  Level FlightAware Approximate
03:15PM 41.4616 -74.4993 300° West  Level FlightAware Approximate
03:16PM 41.5279 -74.6465 297° West  Level FlightAware Approximate
03:17PM 41.5883 -74.7933 304° West  Level FlightAware Approximate
03:18PM 41.6584 -74.9377 298° West  Level FlightAware Approximate
03:19PM 41.7189 -75.0900 294° West  Level FlightAware Approximate
03:20PM 41.7815 -75.2406 300° West  Level FlightAware Approximate
03:21PM 41.8452 -75.3908 300° West  Level FlightAware Approximate
03:22PM 41.9087 -75.5414 300° West  Level FlightAware Approximate
03:23PM 41.9713 -75.6927 299° West  Level FlightAware Approximate
03:24PM 42.0333 -75.8447 299° West  Level FlightAware Approximate
03:25PM 42.0950 -75.9970 299° West  Level FlightAware Approximate
03:26PM 42.1555 -76.1503 294° West  Level FlightAware Approximate
03:27PM 42.2072 -76.3096 294° West  Level FlightAware Approximate
03:28PM 42.2587 -76.4691 294° West  Level FlightAware Approximate
03:29PM 42.3099 -76.6289 293° West  Level FlightAware Approximate
03:30PM 42.3610 -76.7888 293° West  Level FlightAware Approximate
03:31PM 42.4119 -76.9491 293° West  Level FlightAware Approximate
03:32PM 42.4619 -77.1100 293° West  Level FlightAware Approximate
03:33PM 42.5110 -77.2714 292° West  Level FlightAware Approximate
03:34PM 42.5600 -77.4332 292° West  Level FlightAware Approximate
03:35PM 42.6087 -77.5952 292° West  Level FlightAware Approximate
03:36PM 42.6572 -77.7574 292° West  Level FlightAware Approximate
03:37PM 42.7060 -77.9196 292° West  Level FlightAware Approximate
03:38PM 42.7545 -78.0821 292° West  Level FlightAware Approximate
03:39PM 42.8027 -78.2448 292° West  Level FlightAware Approximate
03:40PM 42.8507 -78.4078 292° West  Level FlightAware Approximate
03:41PM 42.8985 -78.5711 292° West  Level FlightAware Approximate
03:42PM 42.9747 -78.7081 317° Northwest  Level FlightAware Approximate
03:43PM 43.0684 -78.8290 317° Northwest  Level FlightAware Approximate
03:44PM 43.1619 -78.9504 317° Northwest  Level FlightAware Approximate
03:45PM 43.2529 -79.0755 314° West  Level FlightAware Approximate
03:46PM 43.3415 -79.2039 313° West  Level FlightAware Approximate
03:47PM 43.4296 -79.3332 317° Northwest  Level FlightAware Approximate
03:48PM 43.5239 -79.4541 317° Northwest  Level FlightAware Approximate
03:49PM 43.6181 -79.5755 317° Northwest  Level FlightAware Approximate
03:50PM 43.7123 -79.6969 317° Northwest  Level FlightAware Approximate
03:51PM 43.8065 -79.8186 317° Northwest  Level FlightAware Approximate
03:52PM 43.9006 -79.9407 317° Northwest  Level FlightAware Approximate
03:53PM 43.9890 -80.0706 312° West  Level FlightAware Approximate
03:54PM 44.0764 -80.2021 316° Northwest  Level FlightAware Approximate
03:55PM 44.1690 -80.3269 316° Northwest  Level FlightAware Approximate
03:56PM 44.2614 -80.4520 316° Northwest  Level FlightAware Approximate
03:57PM 44.3499 -80.5723 316° Northwest  Level FlightAware Approximate
03:58PM 44.4318 -80.6842 316° Northwest  Level FlightAware Approximate
03:59PM 44.5136 -80.7964 316° Northwest  Level FlightAware Approximate
04:00PM 44.5954 -80.9089 316° Northwest  Level FlightAware Approximate
04:01PM 44.6770 -81.0218 316° Northwest  Level FlightAware Approximate
04:02PM 44.7548 -81.1395 307° West  Level FlightAware Approximate
04:03PM 44.8244 -81.2675 307° West  Level FlightAware Approximate
04:04PM 44.8938 -81.3960 307° West  Level FlightAware Approximate
04:05PM 44.9631 -81.5247 307° West  Level FlightAware Approximate
04:06PM 45.0323 -81.6537 307° West  Level FlightAware Approximate
04:07PM 45.1013 -81.7831 307° West  Level FlightAware Approximate
04:08PM 45.1734 -81.9190 307° West  Level FlightAware Approximate
04:09PM 45.2454 -82.0552 307° West  Level FlightAware Approximate
04:10PM 45.3172 -82.1918 307° West  Level FlightAware Approximate
04:11PM 45.3889 -82.3288 307° West  Level FlightAware Approximate
04:12PM 45.4629 -82.4633 308° West  Level FlightAware Approximate
04:13PM 45.5373 -82.5977 308° West  Level FlightAware Approximate
04:13PM 40.6400 -73.7830 307° West 2 2  Level FlightAware
04:14PM 45.6114 -82.7325 308° West  Level FlightAware Approximate
04:15PM 45.6849 -82.8682 307° West  Level FlightAware Approximate
04:16PM 45.7565 -83.0061 307° West  Level FlightAware Approximate
04:17PM 45.8280 -83.1443 307° West  Level FlightAware Approximate
04:17PM 40.6390 -73.7830 180° South 2 2  Level FlightAware
04:18PM 45.8993 -83.2829 307° West  Level FlightAware Approximate
04:19PM 40.6380 -73.7830 180° South 2 2  Level FlightAware
04:22PM 40.8687 -73.9520 323° Northwest  Level FlightAware Approximate
04:23PM 40.9761 -74.0214 339° North  Level FlightAware Approximate
04:24PM 41.0747 -74.0986 327° Northwest  Level FlightAware Approximate
04:24PM 40.6370 -73.7830 327° Northwest 16 18  Level FlightAware
04:24PM 40.6360 -73.7830 180° South  Level FlightAware
04:27PM 40.8572 -73.9405 323° Northwest  Level FlightAware Approximate
04:28PM 40.9579 -74.0123 339° North  Level FlightAware Approximate
04:29PM 41.0584 -74.0844 327° Northwest  Level FlightAware Approximate
04:29PM 40.6350 -73.7830 327° Northwest 15 17  Level FlightAware
04:29PM 40.6360 -73.7850 303° West 28 32  Level FlightAware
04:30PM 40.6380 -73.7880 311° West 31 36  Level FlightAware
04:31PM 40.6390 -73.7910 294° West 32 37  Level FlightAware
04:31PM 40.6400 -73.7930 303° West 28 32  Level FlightAware
04:32PM 40.6420 -73.7970 303° West 31 36  Level FlightAware
04:33PM 40.6430 -73.7990 303° West 33 38  Level FlightAware
04:33PM 40.6440 -73.8010 303° West 32 37  Level FlightAware
04:36PM 40.8786 -73.9619 323° Northwest  Level FlightAware Approximate
04:37PM 40.9822 -74.0244 339° North  Level FlightAware Approximate
04:38PM 41.0793 -74.1027 327° Northwest  Level FlightAware Approximate
04:38PM 40.6390 -73.7960 333° Northwest 155 178  Level FlightAware
04:39PM 41.1790 -74.1749 333° Northwest  Level FlightAware Approximate
04:39PM 40.6300 -73.7770 122° Southeast 181 208 200  Level FlightAware
04:39PM 40.6220 -73.7630 127° Southeast 177 204 600 1,320 Climbing FlightAware
04:40PM 40.6040 -73.7430 140° Southeast 191 220 1,200 960 Climbing FlightAware
04:40PM 40.5850 -73.7200 137° Southeast 223 257 1,500 780 Climbing FlightAware
04:40PM 40.5750 -73.7010 125° Southeast 239 275 1,800 840 Climbing FlightAware
04:40PM 40.5710 -73.6840 107° East 252 290 1,900 840 Climbing FlightAware
04:41PM 40.5680 -73.6600 99° East 264 304 2,200 1,020 Climbing FlightAware
04:41PM 40.5660 -73.6220 94° East 283 326 2,600 1,140 Climbing FlightAware
04:42PM 40.5850 -73.5660 66° East 301 346 3,300 1,800 Climbing FlightAware
04:42PM 40.6120 -73.5260 48° Northeast 305 351 4,500 2,160 Climbing FlightAware
04:43PM 40.6290 -73.5000 49° Northeast 309 356 5,200 2,220 Climbing FlightAware
04:43PM 40.6650 -73.4470 48° Northeast 313 360 6,600 2,400 Climbing FlightAware
04:43PM 40.6810 -73.4360 28° Northeast 308 354 7,000 2,040 Climbing FlightAware
04:43PM 40.6960 -73.4330 North 303 349 7,400 1,860 Climbing FlightAware
04:44PM 40.7330 -73.4500 341° North 298 343 8,300 1,980 Climbing FlightAware
04:44PM 40.7670 -73.4790 327° Northwest 304 350 9,300 2,100 Climbing FlightAware
04:45PM 40.7860 -73.5010 319° Northwest 307 353 9,900 1,380 Climbing FlightAware
04:45PM 40.8280 -73.5570 315° West 331 381 10,700 1,140 Climbing FlightAware
04:46PM 40.8740 -73.6200 314° West 362 417 11,500 1,080 Climbing FlightAware
04:47PM 40.9290 -73.6950 314° West 393 452 12,300 1,200 Climbing FlightAware
04:47PM 40.9730 -73.7570 313° West 406 467 13,200 1,500 Climbing FlightAware
04:48PM 41.0180 -73.8180 314° West 411 473 14,300 2,160 Climbing FlightAware
04:49PM 41.0646 -73.8824 314° West 415 478 15,500 2,220 Climbing FlightAware ADS-B
04:49PM 41.1188 -73.9567 314° West 410 472 16,800 720 Climbing FlightAware ADS-B
04:50PM 41.2020 -74.0710 314° West 408 470 16,800  Level FlightAware
04:51PM 41.2520 -74.1400 314° West 409 471 16,900 60 Climbing FlightAware
04:52PM 41.3080 -74.2200 313° West 410 472 16,900  Level FlightAware
04:52PM 41.3620 -74.2930 315° West 408 470 16,900 720 Level FlightAware
04:53PM 41.4090 -74.3650 311° West 408 470 17,900 2,460 Climbing FlightAware
04:54PM 41.4500 -74.4550 301° West 377 434 20,300 2,400 Climbing FlightAware
04:54PM 41.4850 -74.5370 300° West 371 427 21,400 900 Climbing FlightAware
04:55PM 41.5170 -74.6150 299° West 372 428 21,600 1,260 Climbing FlightAware
04:56PM 41.5610 -74.7130 301° West 373 429 23,300 1,860 Climbing FlightAware
04:56PM 41.5980 -74.7990 300° West 387 445 24,200 1,260 Climbing FlightAware
04:57PM 41.6410 -74.8990 300° West 391 450 25,100 1,020 Climbing FlightAware
04:58PM 41.6740 -74.9780 299° West 394 453 25,700 480 Climbing FlightAware
04:59PM 41.7040 -75.0500 299° West 397 457 25,800 240 Climbing FlightAware
05:00PM 41.7690 -75.2060 299° West 412 474 26,200 180 Climbing FlightAware
05:00PM 41.7960 -75.2750 298° West 412 474 26,200  Level FlightAware
05:01PM 41.8320 -75.3650 298° West 412 474 26,200  Level FlightAware
05:02PM 41.8610 -75.4380 298° West 412 474 26,200  Level FlightAware
05:03PM 41.8960 -75.5260 298° West 412 474 26,200 1,860 Level FlightAware
05:03PM 42.0030 -75.7600 302° West 461 531 29,000 2,520 Climbing FlightAware
05:04PM 42.0460 -75.8650 299° West 458 527 29,800 840 Climbing FlightAware
05:05PM 42.0820 -75.9520 299° West 460 529 30,100 180 Climbing FlightAware
05:05PM 42.1330 -76.0750 299° West 458 527 30,100  Level FlightAware
05:06PM 42.1690 -76.1650 298° West 457 526 30,100  Level FlightAware
05:07PM 42.2070 -76.2880 293° West 455 524 30,100  Level FlightAware
05:08PM 42.2400 -76.3960 292° West 457 526 30,100  Level FlightAware
05:08PM 42.2750 -76.5060 293° West 457 526 30,100  Level FlightAware
05:09PM 42.3120 -76.6220 293° West 458 527 30,100  Level FlightAware
05:10PM 42.3440 -76.7220 293° West 459 528 30,100  Level FlightAware
05:10PM 42.3770 -76.8250 293° West 460 529 30,100  Level FlightAware
05:11PM 42.4210 -76.9650 293° West 461 531 30,100  Level FlightAware
05:12PM 42.4530 -77.0660 293° West 461 531 30,100  Level FlightAware
05:12PM 42.4890 -77.1840 293° West 462 532 30,100  Level FlightAware
05:13PM 42.5250 -77.3010 293° West 462 532 30,100  Level FlightAware
05:14PM 42.5570 -77.4050 293° West 463 533 30,100  Level FlightAware
05:15PM 42.5920 -77.5180 293° West 464 534 30,100  Level FlightAware
05:15PM 42.6260 -77.6310 292° West 465 535 30,100  Level FlightAware
05:16PM 42.6590 -77.7390 293° West 466 536 30,100  Level FlightAware
05:17PM 42.6970 -77.8640 293° West 466 536 30,100  Level FlightAware
05:17PM 42.7310 -77.9780 292° West 466 536 30,100  Level FlightAware
05:18PM 42.7660 -78.0950 292° West 466 536 30,100  Level FlightAware
05:19PM 42.7950 -78.1830 294° West 469 540 30,100  Level FlightAware
05:19PM 42.8600 -78.2850 311° West 475 547 30,100  Level FlightAware
05:20PM 42.9150 -78.3750 310° West 475 547 30,100  Level FlightAware
05:21PM 42.9740 -78.4790 308° West 476 548 30,100  Level FlightAware
05:22PM 43.0350 -78.5900 307° West 479 551 30,100  Level FlightAware
05:22PM 43.0920 -78.6830 310° West 479 551 30,100  Level FlightAware
05:23PM 43.1490 -78.7780 309° West 479 551 30,100  Level FlightAware
05:24PM 43.2120 -78.8810 310° West 479 551 30,100  Level FlightAware
05:24PM 43.2700 -78.9770 310° West 480 552 30,100  Level FlightAware
05:25PM 43.3330 -79.0830 309° West 480 552 30,100  Level FlightAware
05:26PM 43.3830 -79.1660 310° West 480 552 30,100  Level FlightAware
05:26PM 43.4440 -79.2680 309° West 481 554 30,100  Level FlightAware
05:27PM 43.5090 -79.3790 309° West 481 554 30,100  Level FlightAware
05:28PM 43.5660 -79.4730 310° West 480 552 30,100  Level FlightAware
05:29PM 43.6440 -79.6040 309° West 482 555 30,100  Level FlightAware
05:30PM 43.7200 -79.6960 319° Northwest 487 560 30,100  Level FlightAware
05:30PM 43.7900 -79.7690 323° Northwest 487 560 30,100  Level FlightAware
05:31PM 43.8700 -79.8540 323° Northwest 488 562 30,100  Level FlightAware
05:32PM 43.9390 -79.9260 323° Northwest 487 560 30,100  Level FlightAware
05:32PM 44.0200 -80.0140 322° Northwest 485 558 30,100  Level FlightAware
05:33PM 44.0920 -80.0900 323° Northwest 484 557 30,100  Level FlightAware
05:34PM 44.1620 -80.1730 320° Northwest 480 552 30,100  Level FlightAware
05:35PM 44.2650 -80.3360 311° West 478 550 30,100  Level FlightAware
05:36PM 44.3300 -80.4410 311° West 478 550 30,100  Level FlightAware
05:36PM 44.3900 -80.5360 311° West 477 549 30,100  Level FlightAware
05:37PM 44.4460 -80.6240 312° West 476 548 30,100  Level FlightAware
05:38PM 44.5040 -80.7160 311° West 475 547 30,100  Level FlightAware
05:38PM 44.5680 -80.8180 311° West 475 547 30,100  Level FlightAware
05:39PM 44.6250 -80.9110 311° West 474 545 30,100  Level FlightAware
05:40PM 44.6870 -81.0110 311° West 475 547 30,100  Level FlightAware
05:40PM 44.7450 -81.1050 311° West 476 548 30,100  Level FlightAware
05:41PM 44.8000 -81.2020 309° West 474 545 30,100  Level FlightAware
05:42PM 44.8550 -81.3050 307° West 477 549 30,100  Level FlightAware
05:43PM 44.9150 -81.4140 308° West 478 550 30,100  Level FlightAware
05:43PM 44.9840 -81.5430 307° West 478 550 30,100  Level FlightAware
05:44PM 45.0380 -81.6420 308° West 478 550 30,100  Level FlightAware
05:45PM 45.0980 -81.7540 307° West 477 549 30,100  Level FlightAware
05:45PM 45.1480 -81.8450 308° West 476 548 30,100  Level FlightAware
05:46PM 45.2080 -81.9580 307° West 477 549 30,100  Level FlightAware
05:47PM 45.2580 -82.0530 307° West 477 549 30,100  Level FlightAware
05:47PM 45.3120 -82.1550 307° West 476 548 30,100  Level FlightAware
05:48PM 45.3710 -82.2650 307° West 475 547 30,100  Level FlightAware
05:49PM 45.4190 -82.3580 306° West 475 547 30,100  Level FlightAware
05:50PM 45.4580 -82.4360 306° West 475 547 30,100  Level FlightAware
05:50PM 45.5110 -82.5390 306° West 475 547 30,100  Level FlightAware
05:51PM 45.5500 -82.6170 306° West 475 547 30,100  Level FlightAware
05:52PM 45.6030 -82.7210 306° West 475 547 30,100  Level FlightAware
05:52PM 45.6440 -82.8010 306° West 475 547 30,100  Level FlightAware
05:53PM 45.6960 -82.9040 306° West 475 547 30,100  Level FlightAware
05:54PM 45.7360 -82.9820 306° West 475 547 30,100  Level FlightAware
05:55PM 45.7900 -83.0890 306° West 475 547 30,100  Level FlightAware
05:55PM 45.8290 -83.1670 306° West 475 547 30,100  Level FlightAware
05:56PM 45.8970 -83.3010 306° West 475 547 30,100  Level FlightAware
05:57PM 45.9370 -83.3790 306° West 475 547 30,100  Level FlightAware
05:58PM 45.9890 -83.4840 306° West 475 547 30,100  Level FlightAware
05:58PM 46.0300 -83.5640 306° West 475 547 30,100  Level FlightAware
05:59PM 46.2000 -83.9167 306° West 480 552 30,100  Level Toronto Center
06:00PM 46.2833 -84.0667 309° West 480 552 30,100  Level Toronto Center
06:01PM 46.3667 -84.2167 309° West 480 552 30,100  Level Toronto Center
06:02PM 46.4333 -84.3667 303° West 480 552 30,100  Level Toronto Center
06:03PM 46.5000 -84.5500 298° West 470 541 30,100  Level Toronto Center
06:04PM 46.5500 -84.7167 294° West 470 541 30,100  Level Toronto Center
06:05PM 46.6167 -84.8833 300° West 480 552 30,100  Level Toronto Center
06:06PM 46.6833 -85.0500 300° West 480 552 30,100  Level Toronto Center
06:07PM 46.7500 -85.2333 298° West 480 552 30,100  Level Toronto Center
06:08PM 46.8167 -85.4000 300° West 480 552 30,100  Level Toronto Center
06:09PM 46.8833 -85.5667 300° West 480 552 30,100  Level Toronto Center
06:10PM 46.9333 -85.6667 306° West 480 552 30,100  Level Winnipeg Center
06:11PM 46.9833 -85.8500 292° West 480 552 30,100  Level Winnipeg Center
06:12PM 47.0500 -86.0167 300° West 480 552 30,100  Level Winnipeg Center
06:13PM 47.1167 -86.2000 298° West 480 552 30,100  Level Winnipeg Center
06:14PM 47.1667 -86.3500 296° West 480 552 30,100  Level Winnipeg Center
06:15PM 47.2500 -86.5333 304° West 480 552 30,100  Level Winnipeg Center
06:16PM 47.3000 -86.7000 294° West 480 552 30,100  Level Winnipeg Center
06:17PM 47.3833 -86.8833 304° West 480 552 30,100  Level Winnipeg Center
06:18PM 47.4333 -87.0500 294° West 480 552 30,100  Level Winnipeg Center
06:19PM 47.4833 -87.2333 292° West 480 552 30,100  Level Winnipeg Center
06:20PM 47.5500 -87.4000 301° West 480 552 30,100  Level Winnipeg Center
06:21PM 47.6167 -87.5833 298° West 480 552 30,100  Level Winnipeg Center
06:22PM 47.6833 -87.7667 298° West 480 552 30,100  Level Winnipeg Center
06:23PM 47.7333 -87.9333 294° West 480 552 30,100  Level Winnipeg Center
06:24PM 47.8000 -88.1000 301° West 480 552 30,100  Level Winnipeg Center
06:25PM 47.8667 -88.2833 299° West 480 552 30,100  Level Winnipeg Center
06:26PM 47.9167 -88.4500 294° West 480 552 30,100  Level Winnipeg Center
06:31PM 48.2650 -89.4420 294° West 496 571 30,100  Level FlightAware
06:32PM 48.3450 -89.5530 317° Northwest 503 579 30,100  Level FlightAware
06:33PM 48.4040 -89.6280 320° Northwest 503 579 30,100  Level FlightAware
06:33PM 48.4780 -89.7220 320° Northwest 503 579 30,100  Level FlightAware
06:34PM 48.5330 -89.7910 320° Northwest 503 579 30,100  Level FlightAware
06:35PM 48.6050 -89.8830 320° Northwest 503 579 30,100  Level FlightAware
06:35PM 48.6580 -89.9500 320° Northwest 503 579 30,100  Level FlightAware
06:36PM 48.7330 -90.0450 320° Northwest 503 579 30,100  Level FlightAware
06:37PM 48.7860 -90.1120 320° Northwest 503 579 30,100  Level FlightAware
06:38PM 48.8600 -90.2070 320° Northwest 503 579 30,100  Level FlightAware
06:38PM 48.9140 -90.2770 320° Northwest 503 579 30,100  Level FlightAware
06:39PM 48.9890 -90.3710 321° Northwest 503 579 30,100  Level FlightAware
06:40PM 49.0450 -90.4430 320° Northwest 503 579 30,100  Level FlightAware
06:40PM 49.1170 -90.5360 320° Northwest 503 579 30,100  Level FlightAware
06:41PM 49.1720 -90.6060 320° Northwest 503 579 30,100  Level FlightAware
06:42PM 49.2420 -90.6960 320° Northwest 503 579 30,100  Level FlightAware
06:43PM 49.4833 -91.0333 320° Northwest 500 575 30,100  Level Winnipeg Center
06:44PM 49.6000 -91.1833 320° Northwest 500 575 30,100  Level Winnipeg Center
06:45PM 49.7000 -91.3167 319° Northwest 510 587 30,100  Level Winnipeg Center
06:46PM 49.8167 -91.4667 320° Northwest 510 587 30,100  Level Winnipeg Center
06:47PM 49.9167 -91.6167 316° Northwest 510 587 30,100  Level Winnipeg Center
06:48PM 50.0167 -91.7500 319° Northwest 510 587 30,100  Level Winnipeg Center
06:49PM 50.1167 -91.9000 316° Northwest 510 587 30,100  Level Winnipeg Center
06:50PM 50.2000 -92.0667 308° West 510 587 30,100  Level Winnipeg Center
06:51PM 50.3000 -92.2500 311° West 510 587 30,100  Level Winnipeg Center
06:52PM 50.3833 -92.4167 308° West 510 587 30,100  Level Winnipeg Center
06:53PM 50.4833 -92.6000 311° West 510 587 30,100  Level Winnipeg Center
06:54PM 50.5667 -92.7667 308° West 510 587 30,100  Level Winnipeg Center
06:55PM 50.6667 -92.9500 311° West 520 598 30,100  Level Winnipeg Center
06:56PM 50.7500 -93.1333 306° West 520 598 30,100  Level Winnipeg Center
06:57PM 50.8333 -93.3000 308° West 520 598 30,100  Level Winnipeg Center
06:58PM 50.9333 -93.4833 311° West 520 598 30,100  Level Winnipeg Center
06:59PM 51.0167 -93.7000 302° West 520 598 30,100  Level Winnipeg Center
07:00PM 51.1167 -93.8500 317° Northwest 530 610 30,100  Level Winnipeg Center
07:01PM 51.2500 -94.0000 325° Northwest 530 610 30,100  Level Winnipeg Center
07:02PM 51.3667 -94.1167 328° Northwest 530 610 30,100  Level Winnipeg Center
07:03PM 51.4667 -94.2833 314° West 530 610 30,100  Level Winnipeg Center
07:04PM 51.5833 -94.4333 321° Northwest 530 610 30,100  Level Winnipeg Center
07:05PM 51.7000 -94.5833 321° Northwest 530 610 30,100  Level Winnipeg Center
07:06PM 51.8167 -94.7500 319° Northwest 530 610 30,100  Level Winnipeg Center
07:07PM 51.9333 -94.9000 322° Northwest 530 610 30,100  Level Winnipeg Center
07:08PM 52.0000 -94.9833 322° Northwest 530 610 30,100  Level Edmonton Center
07:09PM 52.1167 -95.1500 319° Northwest 530 610 30,100  Level Edmonton Center
07:09PM 52.1500 -95.2167 309° West 530 610 30,100  Level Winnipeg Center
07:10PM 52.2833 -95.3833 323° Northwest 530 610 30,100  Level Winnipeg Center
07:11PM 52.3833 -95.5167 321° Northwest 550 633 30,100 60 Level Winnipeg Center
07:12PM 52.5167 -95.7000 320° Northwest 530 610 30,300 600 Climbing Winnipeg Center
07:13PM 52.6167 -95.8667 315° West 550 633 31,400 960 Climbing Winnipeg Center
07:14PM 52.6833 -95.9333 329° Northwest 530 610 32,000 360 Climbing Edmonton Center
07:15PM 52.8000 -96.1167 317° Northwest 540 621 32,100 60 Climbing Edmonton Center
07:15PM 52.8333 -96.1833 310° West 540 621 32,100  Level Winnipeg Center
07:16PM 52.9500 -96.3167 325° Northwest 540 621 32,100  Level Winnipeg Center
07:17PM 53.0667 -96.4833 319° Northwest 540 621 32,100  Level Winnipeg Center
07:18PM 53.2000 -96.6833 318° Northwest 540 621 32,100  Level Winnipeg Center
07:19PM 53.3000 -96.8167 321° Northwest 540 621 32,100  Level Winnipeg Center
07:20PM 53.4333 -97.0000 321° Northwest 550 633 32,100  Level Winnipeg Center
07:21PM 53.4833 -97.1000 310° West 540 621 32,100  Level Edmonton Center
07:22PM 53.6167 -97.2833 321° Northwest 540 621 32,100  Level Edmonton Center
07:22PM 53.6500 -97.3667 304° West 550 633 32,100  Level Winnipeg Center
07:23PM 53.7667 -97.5333 320° Northwest 550 633 32,100  Level Winnipeg Center
07:24PM 53.8833 -97.7000 320° Northwest 560 644 32,100  Level Winnipeg Center
07:25PM 54.0000 -97.8667 320° Northwest 560 644 32,100  Level Winnipeg Center
07:26PM 54.0667 -98.0833 298° West 550 633 32,100  Level Winnipeg Center
07:27PM 54.1500 -98.2167 317° Northwest 550 633 32,100  Level Edmonton Center
07:28PM 54.2333 -98.4167 306° West 540 621 32,100  Level Edmonton Center
07:29PM 54.3333 -98.6333 308° West 550 633 32,100  Level Edmonton Center
07:29PM 54.3667 -98.7167 304° West 550 633 32,100  Level Winnipeg Center
07:30PM 54.4667 -98.9167 311° West 550 633 32,100  Level Winnipeg Center
07:31PM 54.5667 -99.1333 309° West 560 644 32,100  Level Winnipeg Center
07:32PM 54.6167 -99.2500 307° West 550 633 32,100  Level Edmonton Center
07:32PM 54.6500 -99.3333 305° West 560 644 32,100  Level Winnipeg Center
07:33PM 54.7500 -99.5667 307° West 560 644 32,100  Level Winnipeg Center
07:34PM 54.8333 -99.7833 304° West 560 644 32,100  Level Winnipeg Center
07:35PM 54.9333 -100.0000 309° West 560 644 32,100  Level Winnipeg Center
07:36PM 55.0000 -100.1500 308° West 560 644 32,100  Level Edmonton Center
07:37PM 55.0833 -100.3500 306° West 560 644 32,100  Level Edmonton Center
07:37PM 55.1167 -100.4500 300° West 560 644 32,100  Level Winnipeg Center
07:38PM 55.1833 -100.5667 315° West 550 633 32,100  Level Edmonton Center
07:38PM 55.2167 -100.6667 300° West 560 644 32,100  Level Winnipeg Center
07:39PM 55.3000 -100.8667 306° West 560 644 32,100  Level Winnipeg Center
07:40PM 55.4000 -101.0833 309° West 550 633 32,100  Level Winnipeg Center
07:41PM 55.4333 -101.2333 291° West 540 621 32,100  Level Edmonton Center
07:42PM 55.5500 -101.4500 314° West 540 621 32,100  Level Edmonton Center
07:43PM 55.6167 -101.6667 299° West 540 621 32,100  Level Edmonton Center
07:44PM 55.7167 -101.9000 307° West 550 633 32,100  Level Edmonton Center
07:45PM 55.8000 -102.1333 303° West 550 633 32,100  Level Edmonton Center
07:45PM 55.8500 -102.2167 317° Northwest 560 644 32,100  Level Winnipeg Center
07:46PM 55.9333 -102.4333 305° West 560 644 32,100  Level Winnipeg Center
07:47PM 56.0167 -102.6500 305° West 560 644 32,100  Level Winnipeg Center
07:48PM 56.0667 -102.8000 301° West 550 633 32,100  Level Edmonton Center
07:48PM 56.1000 -102.8833 306° West 560 644 32,100  Level Winnipeg Center
07:49PM 56.1833 -103.1333 301° West 560 644 32,100  Level Winnipeg Center
07:50PM 56.3000 -103.3667 312° West 570 656 32,100  Level Winnipeg Center
07:51PM 56.3333 -103.5000 294° West 560 644 32,100  Level Edmonton Center
07:52PM 56.4167 -103.7333 303° West 560 644 32,100  Level Edmonton Center
07:53PM 56.5167 -103.9833 306° West 550 633 32,100  Level Edmonton Center
07:53PM 56.5500 -104.0667 306° West 560 644 32,100  Level Winnipeg Center
07:54PM 56.6333 -104.3000 303° West 560 644 32,100  Level Winnipeg Center
07:55PM 56.7167 -104.5333 303° West 560 644 32,100  Level Winnipeg Center
07:56PM 56.8000 -104.7667 303° West 550 633 32,100  Level Winnipeg Center
07:57PM 56.8833 -105.0000 303° West 550 633 32,100  Level Winnipeg Center
07:58PM 56.9833 -105.2333 308° West 550 633 32,100  Level Winnipeg Center
07:59PM 57.0500 -105.4667 298° West 550 633 32,100  Level Winnipeg Center
08:00PM 57.1500 -105.7333 305° West 560 644 32,100  Level Winnipeg Center
08:01PM 57.2333 -105.9667 303° West 560 644 32,100  Level Winnipeg Center
08:02PM 57.2667 -106.0833 298° West 550 633 32,100  Level Edmonton Center
08:03PM 57.3500 -106.3500 300° West 550 633 32,100  Level Edmonton Center
08:04PM 57.4333 -106.6000 302° West 550 633 32,100  Level Edmonton Center
08:05PM 57.5167 -106.8167 306° West 540 621 32,100  Level Edmonton Center
08:06PM 57.6000 -107.0833 300° West 540 621 32,100  Level Edmonton Center
08:07PM 57.6833 -107.3333 302° West 540 621 32,100  Level Edmonton Center
08:08PM 57.7667 -107.5667 304° West 540 621 32,100  Level Edmonton Center
08:09PM 57.8167 -107.8333 289° West 530 610 32,100  Level Edmonton Center
08:10PM 57.9000 -108.0500 306° West 530 610 32,100  Level Edmonton Center
08:11PM 57.9833 -108.2833 304° West 530 610 32,100  Level Edmonton Center
08:12PM 58.0667 -108.5500 301° West 530 610 32,100  Level Edmonton Center
08:13PM 58.1333 -108.7833 298° West 530 610 32,100  Level Edmonton Center
08:14PM 58.2000 -109.0500 295° West 530 610 32,100  Level Edmonton Center
08:15PM 58.2667 -109.2833 299° West 530 610 32,100  Level Edmonton Center
08:16PM 58.3500 -109.5167 304° West 520 598 32,100  Level Edmonton Center
08:17PM 58.4333 -109.7833 301° West 530 610 32,100  Level Edmonton Center
08:18PM 58.4833 -110.0333 291° West 520 598 32,100  Level Edmonton Center
08:19PM 58.5667 -110.2667 304° West 530 610 32,100  Level Edmonton Center
08:20PM 58.6333 -110.5333 296° West 540 621 32,100  Level Edmonton Center
08:21PM 58.7000 -110.7833 297° West 530 610 32,100  Level Edmonton Center
08:22PM 58.7833 -111.0167 305° West 520 598 32,100  Level Edmonton Center
08:23PM 58.8500 -111.3000 295° West 520 598 32,100  Level Edmonton Center
08:24PM 58.9167 -111.5333 299° West 510 587 32,100  Level Edmonton Center
08:25PM 58.9833 -111.8167 295° West 510 587 32,100  Level Edmonton Center
08:26PM 59.0500 -112.0333 301° West 520 598 32,100  Level Edmonton Center
08:27PM 59.1167 -112.3167 295° West 520 598 32,100  Level Edmonton Center
08:28PM 59.1833 -112.5500 299° West 520 598 32,100  Level Edmonton Center
08:29PM 59.2500 -112.8000 298° West 520 598 32,100  Level Edmonton Center
08:30PM 59.3167 -113.0833 295° West 530 610 32,100  Level Edmonton Center
08:31PM 59.3833 -113.3333 298° West 520 598 32,100  Level Edmonton Center
08:32PM 59.4333 -113.5833 292° West 530 610 32,100  Level Edmonton Center
08:33PM 59.5000 -113.8833 294° West 530 610 32,100  Level Edmonton Center
08:34PM 59.5667 -114.1333 298° West 520 598 32,100  Level Edmonton Center
08:35PM 59.6167 -114.3833 292° West 510 587 32,100  Level Edmonton Center
08:36PM 59.6833 -114.6333 298° West 510 587 32,100  Level Edmonton Center
08:37PM 59.7500 -114.9000 296° West 510 587 32,100  Level Edmonton Center
08:38PM 59.8000 -115.1500 292° West 510 587 32,100  Level Edmonton Center
08:39PM 59.8667 -115.4000 298° West 510 587 32,100  Level Edmonton Center
08:40PM 59.9333 -115.7000 294° West 520 598 32,100  Level Edmonton Center
08:41PM 60.0000 -115.9667 297° West 520 598 32,100  Level Edmonton Center
08:42PM 60.0500 -116.2167 292° West 520 598 32,100  Level Edmonton Center
08:43PM 60.1000 -116.5167 289° West 510 587 32,100  Level Edmonton Center
08:44PM 60.1500 -116.7667 292° West 510 587 32,100  Level Edmonton Center
08:45PM 60.2000 -117.0333 291° West 510 587 32,100  Level Edmonton Center
08:46PM 60.2500 -117.3000 291° West 510 587 32,100  Level Edmonton Center
08:47PM 60.3000 -117.5833 290° West 500 575 32,100  Level Edmonton Center
08:48PM 60.3333 -117.8500 284° West 500 575 32,100  Level Edmonton Center
08:49PM 60.3833 -118.1167 291° West 490 564 32,100  Level Edmonton Center
08:50PM 60.4500 -118.3833 297° West 500 575 32,100  Level Edmonton Center
08:51PM 60.4833 -118.6500 284° West 490 564 32,100  Level Edmonton Center
08:52PM 60.5333 -118.9167 291° West 480 552 32,100  Level Edmonton Center
08:53PM 60.5667 -119.1667 285° West 490 564 32,100  Level Edmonton Center
08:54PM 60.6167 -119.4500 290° West 490 564 32,100  Level Edmonton Center
08:55PM 60.6667 -119.7167 291° West 490 564 32,100  Level Edmonton Center
08:56PM 60.7000 -119.9833 284° West 490 564 32,100  Level Edmonton Center
08:57PM 60.7500 -120.2500 291° West 490 564 32,100  Level Edmonton Center
08:58PM 60.7833 -120.5167 284° West 490 564 32,100  Level Edmonton Center
08:59PM 60.8167 -120.7833 284° West 490 564 32,100  Level Edmonton Center
09:00PM 60.8500 -121.0500 285° West 480 552 32,100  Level Edmonton Center
09:01PM 60.9167 -121.3333 296° West 480 552 32,100  Level Edmonton Center
09:02PM 60.9333 -121.5833 278° West 490 564 32,100  Level Edmonton Center
09:04PM 61.0079 -122.0488 288° West  Level FlightAware Approximate
09:11PM 61.2603 -123.9118 286° West  Level FlightAware Approximate
09:12PM 61.2936 -124.1805 285° West  Level FlightAware Approximate
09:13PM 61.3264 -124.4499 284° West  Level FlightAware Approximate
09:14PM 61.3587 -124.7198 284° West  Level FlightAware Approximate
09:15PM 61.3904 -124.9902 284° West  Level FlightAware Approximate
09:16PM 61.4216 -125.2613 284° West  Level FlightAware Approximate
09:17PM 61.4523 -125.5328 283° West  Level FlightAware Approximate
09:18PM 61.4824 -125.8049 283° West  Level FlightAware Approximate
09:19PM 61.5118 -126.0775 283° West  Level FlightAware Approximate
09:20PM 61.5405 -126.3508 283° West  Level FlightAware Approximate
09:21PM 61.5686 -126.6246 282° West  Level FlightAware Approximate
09:22PM 61.5961 -126.8989 282° West  Level FlightAware Approximate
09:23PM 61.6231 -127.1736 282° West  Level FlightAware Approximate
09:24PM 61.6496 -127.4489 282° West  Level FlightAware Approximate
09:25PM 61.6755 -127.7245 281° West  Level FlightAware Approximate
09:26PM 61.7008 -128.0007 281° West  Level FlightAware Approximate
09:27PM 61.7256 -128.2773 281° West  Level FlightAware Approximate
09:28PM 61.7499 -128.5543 281° West  Level FlightAware Approximate
09:29PM 61.7735 -128.8318 280° West  Level FlightAware Approximate
09:30PM 61.7966 -129.1097 280° West  Level FlightAware Approximate
09:31PM 61.8192 -129.3880 280° West  Level FlightAware Approximate
09:32PM 61.8412 -129.6667 280° West  Level FlightAware Approximate
09:33PM 61.8626 -129.9458 279° West  Level FlightAware Approximate
09:34PM 61.8831 -130.2254 279° West  Level FlightAware Approximate
09:35PM 61.9030 -130.5054 279° West  Level FlightAware Approximate
09:36PM 61.9223 -130.7858 278° West  Level FlightAware Approximate
09:37PM 61.9411 -131.0665 278° West  Level FlightAware Approximate
09:38PM 61.9593 -131.3475 278° West  Level FlightAware Approximate
09:39PM 61.9768 -131.6289 278° West  Level FlightAware Approximate
09:40PM 61.9939 -131.9106 277° West  Level FlightAware Approximate
09:41PM 62.0103 -132.1926 277° West  Level FlightAware Approximate
09:42PM 62.0262 -132.4749 277° West  Level FlightAware Approximate
09:43PM 62.0415 -132.7575 277° West  Level FlightAware Approximate
09:44PM 62.0563 -133.0403 276° West  Level FlightAware Approximate
09:45PM 62.0704 -133.3235 276° West  Level FlightAware Approximate
09:46PM 62.0840 -133.6069 276° West  Level FlightAware Approximate
09:47PM 62.0970 -133.8905 276° West  Level FlightAware Approximate
09:48PM 62.1094 -134.1744 275° West  Level FlightAware Approximate
09:49PM 62.1212 -134.4585 275° West  Level FlightAware Approximate
09:50PM 62.1324 -134.7428 275° West  Level FlightAware Approximate
09:51PM 62.1431 -135.0273 275° West  Level FlightAware Approximate
09:52PM 62.1532 -135.3121 274° West  Level FlightAware Approximate
09:53PM 62.1627 -135.5970 274° West  Level FlightAware Approximate
09:54PM 62.1716 -135.8821 274° West  Level FlightAware Approximate
09:55PM 62.1799 -136.1673 274° West  Level FlightAware Approximate
09:56PM 62.1876 -136.4527 273° West  Level FlightAware Approximate
09:57PM 62.1947 -136.7382 273° West  Level FlightAware Approximate
09:58PM 62.2013 -137.0239 273° West  Level FlightAware Approximate
09:59PM 62.2073 -137.3097 273° West  Level FlightAware Approximate
10:00PM 62.2127 -137.5956 272° West  Level FlightAware Approximate
10:01PM 62.2175 -137.8816 272° West  Level FlightAware Approximate
10:02PM 62.2218 -138.1676 272° West  Level FlightAware Approximate
10:03PM 62.2256 -138.4538 272° West  Level FlightAware Approximate
10:04PM 62.2288 -138.7400 271° West  Level FlightAware Approximate
10:05PM 62.2314 -139.0262 271° West  Level FlightAware Approximate
10:06PM 62.2334 -139.3125 271° West  Level FlightAware Approximate
10:07PM 62.2349 -139.5989 271° West  Level FlightAware Approximate
10:08PM 62.2357 -139.8852 270° West  Level FlightAware Approximate
10:09PM 62.2360 -140.1716 270° West  Level FlightAware Approximate
10:10PM 62.2356 -140.4580 270° West  Level FlightAware Approximate
10:11PM 62.2347 -140.7443 270° West  Level FlightAware Approximate
10:11PM 62.2333 -141.4500 269° West 460 529 34,000  Level Anchorage Center
10:12PM 62.2332 -141.0311 270° West  Level FlightAware Approximate
10:12PM 62.2500 -141.7667 277° West 510 587 34,000  Level Anchorage Center
10:13PM 62.2321 -141.3178 270° West  Level FlightAware Approximate
10:13PM 62.2333 -142.0500 263° West 500 575 34,000  Level Anchorage Center
10:14PM 62.2303 -141.6044 269° West  Level FlightAware Approximate
10:14PM 62.2333 -142.3500 270° West 500 575 34,000  Level Anchorage Center
10:15PM 62.2280 -141.8911 269° West  Level FlightAware Approximate
10:15PM 62.2333 -142.6667 270° West 490 564 34,000  Level Anchorage Center
10:16PM 62.2250 -142.1777 269° West  Level FlightAware Approximate
10:16PM 62.2333 -142.9500 270° West 500 575 34,000  Level Anchorage Center
10:17PM 62.2215 -142.4642 269° West  Level FlightAware Approximate
10:17PM 62.2333 -143.2500 270° West 500 575 34,000  Level Anchorage Center
10:18PM 62.2333 -143.5667 270° West 510 587 34,000  Level Anchorage Center
10:20PM 62.2167 -143.8667 263° West 490 564 34,000  Level Anchorage Center
10:21PM 62.2167 -144.1667 270° West 500 575 34,000  Level Anchorage Center
10:22PM 62.2167 -144.4500 270° West 490 564 34,000  Level Anchorage Center
10:23PM 62.2000 -144.7500 263° West 500 575 34,000  Level Anchorage Center
10:28PM 62.1650 -146.3720 263° West 495 570 34,100  Climbing FlightAware
10:29PM 62.1570 -146.5870 266° West 494 568 34,100  Level FlightAware
10:29PM 62.1500 -146.7810 266° West 494 568 34,100  Level FlightAware
10:30PM 62.1420 -146.9850 265° West 493 567 34,100  Level FlightAware
10:31PM 62.1330 -147.1880 265° West 493 567 34,100  Level FlightAware
10:31PM 62.1240 -147.4020 265° West 492 566 34,100  Level FlightAware
10:32PM 62.1160 -147.5950 265° West 493 567 34,100  Level FlightAware
10:33PM 62.1060 -147.8080 264° West 492 566 34,100  Level FlightAware
10:33PM 62.0980 -147.9910 265° West 491 565 34,100  Level FlightAware
10:34PM 62.0880 -148.2030 264° West 490 564 34,100  Level FlightAware
10:35PM 62.0780 -148.4130 264° West 488 562 34,100  Level FlightAware
10:36PM 62.0680 -148.6040 264° West 487 560 34,100  Level FlightAware
10:36PM 62.0590 -148.7850 264° West 486 559 34,100  Level FlightAware
10:37PM 62.0460 -149.0120 263° West 485 558 34,100  Level FlightAware
10:38PM 62.0360 -149.2010 264° West 484 557 34,100  Level FlightAware
10:38PM 62.0240 -149.4090 263° West 484 557 34,100  Level FlightAware
10:39PM 62.0140 -149.5880 263° West 483 556 34,100  Level FlightAware
10:40PM 62.0020 -149.7860 263° West 482 555 34,100  Level FlightAware
10:40PM 61.9900 -149.9830 263° West 483 556 34,100  Level FlightAware
10:41PM 61.9800 -150.1340 262° West 483 556 34,100  Level FlightAware
10:42PM 61.9690 -150.3210 263° West 482 555 34,100  Level FlightAware
10:42PM 61.9550 -150.5270 262° West 481 554 34,100  Level FlightAware
10:43PM 61.9430 -150.7050 262° West 481 554 34,100  Level FlightAware
10:44PM 61.9290 -150.9100 262° West 481 554 34,100  Level FlightAware
10:44PM 61.9150 -151.1160 262° West 484 557 34,100  Level FlightAware
10:45PM 61.9010 -151.3130 262° West 484 557 34,100  Level FlightAware
10:46PM 61.8870 -151.5000 261° West 484 557 34,100  Level FlightAware
10:47PM 61.8720 -151.7150 262° West 484 557 34,100  Level FlightAware
10:47PM 61.8570 -151.9020 260° West 486 559 34,100  Level FlightAware
10:48PM 61.8430 -152.0850 261° West 486 559 34,100  Level FlightAware
10:49PM 61.8270 -152.2970 261° West 486 559 34,100  Level FlightAware
10:49PM 61.8120 -152.4830 260° West 485 558 34,100  Level FlightAware
10:50PM 61.7960 -152.6800 260° West 486 559 34,100  Level FlightAware
10:51PM 61.7790 -152.8850 260° West 485 558 34,100  Level FlightAware
10:51PM 61.7620 -153.0850 260° West 483 556 34,100  Level FlightAware
10:52PM 61.7460 -153.2700 260° West 483 556 34,100  Level FlightAware
10:53PM 61.7280 -153.4690 259° West 483 556 34,100  Level FlightAware
10:53PM 61.7150 -153.6210 260° West 483 556 34,100  Level FlightAware
10:54PM 61.6940 -153.8510 259° West 482 555 34,100  Level FlightAware
10:55PM 61.6750 -154.0540 259° West 482 555 34,100  Level FlightAware
10:56PM 61.6580 -154.2380 259° West 482 555 34,100  Level FlightAware
10:56PM 61.6390 -154.4350 259° West 483 556 34,100  Level FlightAware
10:57PM 61.6220 -154.6140 259° West 483 556 34,100  Level FlightAware
10:58PM 61.6010 -154.8250 258° West 484 557 34,100  Level FlightAware
10:58PM 61.5840 -155.0000 259° West 484 557 34,100  Level FlightAware
10:59PM 61.5680 -155.1550 258° West 484 557 34,100  Level FlightAware
11:00PM 61.5490 -155.3430 258° West 484 557 34,100  Level FlightAware
11:00PM 61.5350 -155.4830 258° West 484 557 34,100  Level FlightAware
11:01PM 61.5160 -155.6710 258° West 484 557 34,100  Level FlightAware
11:02PM 61.5010 -155.8150 258° West 484 557 34,100  Level FlightAware
11:03PM 61.4820 -156.0060 258° West 484 557 34,100  Level FlightAware
11:03PM 61.4670 -156.1470 258° West 484 557 34,100  Level FlightAware
11:04PM 61.4480 -156.3340 258° West 484 557 34,100  Level FlightAware
11:05PM 61.4340 -156.4740 258° West 484 557 34,100  Level FlightAware
11:05PM 61.4190 -156.6180 258° West 484 557 34,100  Level FlightAware
11:06PM 61.4000 -156.8050 258° West 484 557 34,100  Level FlightAware
11:07PM 61.3770 -157.0380 258° West 484 557 34,100  Level FlightAware
11:08PM 61.3620 -157.1780 257° West 484 557 34,100  Level FlightAware
11:09PM 61.3430 -157.3640 258° West 484 557 34,100 -120 Level FlightAware
11:09PM 61.2667 -157.8000 258° West 480 552 34,000 -120 Descending Anchorage Center
11:10PM 61.2333 -158.0667 256° West 470 541 34,000  Level Anchorage Center
11:11PM 61.2000 -158.3333 256° West 480 552 34,000  Level Anchorage Center
11:12PM 61.1667 -158.6000 256° West 470 541 34,000  Level Anchorage Center
11:13PM 61.1167 -158.8667 249° West 480 552 34,000  Level Anchorage Center
11:14PM 61.0833 -159.1500 256° West 490 564 34,000  Level Anchorage Center
11:15PM 61.0667 -159.4000 262° West 470 541 34,000  Level Anchorage Center
11:16PM 61.0167 -159.6667 249° West 470 541 34,000  Level Anchorage Center
11:17PM 60.9833 -159.9333 256° West 480 552 34,000  Level Anchorage Center
11:18PM 60.9333 -160.2000 249° West 470 541 34,000  Level Anchorage Center
11:19PM 60.9000 -160.4667 256° West 470 541 34,000  Level Anchorage Center
11:20PM 60.8667 -160.7000 254° West 470 541 34,000  Level Anchorage Center
11:21PM 60.8333 -160.9667 256° West 480 552 34,000  Level Anchorage Center
11:22PM 60.7833 -161.2333 249° West 480 552 34,000  Level Anchorage Center
11:23PM 60.7500 -161.4833 255° West 470 541 34,000  Level Anchorage Center
11:24PM 60.7000 -161.7500 249° West 480 552 34,000  Level Anchorage Center
11:25PM 60.6667 -162.0000 255° West 470 541 34,000  Level Anchorage Center
11:26PM 60.6333 -162.2500 255° West 470 541 34,000  Level Anchorage Center
11:27PM 60.5833 -162.5333 250° West 480 552 34,000  Level Anchorage Center
11:28PM 60.5500 -162.7667 254° West 470 541 34,000  Level Anchorage Center
11:29PM 60.5000 -163.0167 248° West 470 541 34,000  Level Anchorage Center
11:30PM 60.4500 -163.2833 249° West 480 552 34,000  Level Anchorage Center
11:31PM 60.4000 -163.5500 249° West 480 552 34,000  Level Anchorage Center
11:32PM 60.3667 -163.8000 255° West 470 541 34,000  Level Anchorage Center
11:33PM 60.3167 -164.0500 248° West 470 541 34,000  Level Anchorage Center
11:34PM 60.2667 -164.3167 249° West 470 541 34,000  Level Anchorage Center
11:35PM 60.2333 -164.5667 255° West 470 541 34,000  Level Anchorage Center
11:36PM 60.1833 -164.8167 248° West 470 541 34,000  Level Anchorage Center
11:37PM 60.1333 -165.0667 248° West 470 541 34,000  Level Anchorage Center
11:38PM 60.0833 -165.3167 248° West 480 552 34,000  Level Anchorage Center
11:39PM 60.0333 -165.5667 248° West 480 552 34,000  Level Anchorage Center
11:40PM 59.9833 -165.8167 248° West 480 552 34,000  Level Anchorage Center
11:41PM 59.9333 -166.1167 252° West 480 552 34,000  Level Anchorage Center
11:42PM 59.8833 -166.3667 248° West 480 552 34,000  Level Anchorage Center
11:43PM 59.8333 -166.6167 248° West 480 552 34,000  Level Anchorage Center
11:44PM 59.7833 -166.8667 248° West 480 552 34,000  Level Anchorage Center
11:45PM 59.7333 -167.1167 248° West 480 552 34,000  Level Anchorage Center
11:46PM 59.6667 -167.3667 242° Southwest 480 552 34,000  Level Anchorage Center
11:47PM 59.6167 -167.6000 247° West 480 552 34,000  Level Anchorage Center
11:48PM 59.5667 -167.8500 249° West 490 564 34,000  Level Anchorage Center
11:49PM 59.5167 -168.1000 249° West 490 564 34,000  Level Anchorage Center
11:50PM 59.4500 -168.3500 242° Southwest 470 541 34,000  Level Anchorage Center
11:51PM 59.4000 -168.5833 247° West 480 552 34,000  Level Anchorage Center
11:52PM 59.3500 -168.8333 249° West 490 564 34,000  Level Anchorage Center
11:53PM 59.3000 -169.0833 249° West 490 564 34,000  Level Anchorage Center
11:54PM 59.2333 -169.3333 243° Southwest 490 564 34,000  Level Anchorage Center
11:55PM 59.1833 -169.5833 249° West 490 564 34,000  Level Anchorage Center
11:56PM 59.1167 -169.8167 241° Southwest 490 564 34,000 60 Level Anchorage Center
11:57PM 59.0667 -170.0667 249° West 490 564 34,200 480 Climbing Anchorage Center
11:58PM 59.0167 -170.3167 249° West 500 575 35,000 360 Climbing Anchorage Center
11:59PM 58.9500 -170.5500 241° Southwest 490 564 35,000  Level Anchorage Center
12:00AM 58.8833 -170.7833 241° Southwest 490 564 35,000  Level Anchorage Center
12:01AM 58.8333 -171.0167 248° West 480 552 35,000  Level Anchorage Center
12:02AM 58.7667 -171.2500 241° Southwest 480 552 35,000  Level Anchorage Center
12:03AM 58.7167 -171.4833 248° West 470 541 35,000  Level Anchorage Center
12:04AM 58.6667 -171.7333 249° West 470 541 35,000  Level Anchorage Center
12:05AM 58.6167 -171.9667 248° West 490 564 35,000  Level Anchorage Center
12:06AM 58.5667 -172.2167 249° West 490 564 35,000  Level Anchorage Center
12:07AM 58.5167 -172.4500 248° West 490 564 35,000  Level Anchorage Center
12:08AM 58.4667 -172.7000 249° West 480 552 35,000  Level Anchorage Center
12:09AM 58.4167 -172.9333 248° West 490 564 35,000  Level Anchorage Center
12:10AM 58.3667 -173.1833 249° West 490 564 35,000  Level Anchorage Center
12:11AM 58.3167 -173.4167 248° West 490 564 35,000  Level Anchorage Center
12:12AM 58.2667 -173.6500 248° West 490 564 35,000  Level Anchorage Center
12:13AM 58.2000 -173.9000 243° Southwest 490 564 35,000  Level Anchorage Center
12:14AM 58.1500 -174.1333 248° West 500 575 35,000  Level Anchorage Center
12:15AM 58.1000 -174.3667 248° West 480 552 35,000  Level Anchorage Center
12:16AM 58.0500 -174.6000 248° West 490 564 35,000  Level Anchorage Center
12:17AM 58.0000 -174.8333 248° West 480 552 35,000  Level Anchorage Center
12:18AM 57.9333 -175.0833 243° Southwest 490 564 35,000  Level Anchorage Center
12:19AM 57.8833 -175.3167 248° West 480 552 35,000  Level Anchorage Center
12:20AM 57.8333 -175.5500 248° West 490 564 35,000  Level Anchorage Center
12:21AM 57.7833 -175.7333 243° Southwest 480 552 35,000  Level Anchorage Center
12:22AM 57.7333 -175.9667 248° West 490 564 35,000  Level Anchorage Center
12:23AM 57.6667 -176.2000 242° Southwest 490 564 35,000  Level Anchorage Center
12:26AM 57.5333 -176.8000 245° Southwest 499 574 35,000  Level Anchorage Center
12:27AM 57.5333 -176.8000 245° Southwest 499 574 35,000  Level Anchorage Center
12:32AM 57.1719 -178.2002 244° Southwest 499 574 35,000  Level FlightAware Transoceanic
12:33AM 57.1102 -178.4309 244° Southwest 499 574 35,000  Level FlightAware Transoceanic
12:34AM 57.0480 -178.6608 243° Southwest 499 574 35,000  Level FlightAware Transoceanic
12:35AM 56.9855 -178.8899 243° Southwest 499 574 35,000  Level FlightAware Transoceanic
12:36AM 56.9225 -179.1183 243° Southwest 499 574 35,000  Level FlightAware Transoceanic
12:36AM 56.9167 -179.1500 243° Southwest 501 577 35,000  Level Anchorage Center
12:37AM 56.8591 -179.3459 243° Southwest 499 574 35,000  Level FlightAware Transoceanic
12:38AM 56.7952 -179.5727 243° Southwest 499 574 35,000  Level FlightAware Transoceanic
12:39AM 56.7310 -179.7988 243° Southwest 499 574 35,000  Level FlightAware Transoceanic
12:40AM 56.6664 179.9760 242° Southwest 499 574 35,000  Level FlightAware Transoceanic
12:41AM 56.6013 179.7515 242° Southwest 499 574 35,000  Level FlightAware Transoceanic
12:42AM 56.5326 179.5110 242° Southwest 501 577 35,000  Level FlightAware Transoceanic
12:43AM 56.4672 179.2904 242° Southwest 501 577 35,000  Level FlightAware Transoceanic
12:44AM 56.4014 179.0707 241° Southwest 501 577 35,000  Level FlightAware Transoceanic
12:45AM 56.3352 178.8517 241° Southwest 501 577 35,000  Level FlightAware Transoceanic
12:46AM 56.2686 178.6335 241° Southwest 501 577 35,000  Level FlightAware Transoceanic
12:47AM 56.2017 178.4160 241° Southwest 501 577 35,000  Level FlightAware Transoceanic
12:48AM 56.1344 178.1993 241° Southwest 501 577 35,000  Level FlightAware Transoceanic
12:49AM 56.0667 177.9833 241° Southwest 501 577 35,000  Level FlightAware Transoceanic
12:49AM 56.0667 177.9833 241° Southwest 507 583 35,000  Level Anchorage Center
12:50AM 55.9992 177.7703 240° Southwest 501 577 35,000  Level FlightAware Transoceanic
12:51AM 55.9314 177.5579 240° Southwest 501 577 35,000  Level FlightAware Transoceanic
12:52AM 55.8633 177.3464 240° Southwest 501 577 35,000  Level FlightAware Transoceanic
12:53AM 55.7947 177.1355 240° Southwest 501 577 35,000  Level FlightAware Transoceanic
12:53AM 55.7500 177.0167 239° Southwest 500 575 35,000  Level Anchorage Center
12:54AM 55.7258 176.9254 240° Southwest 501 577 35,000  Level FlightAware Transoceanic
12:54AM 55.6667 176.8000 236° Southwest 490 564 35,000  Level Anchorage Center
12:55AM 55.6399 176.6660 239° Southwest 507 583 35,000  Level FlightAware Transoceanic
12:55AM 55.6167 176.6000 246° West 500 575 35,000  Level Anchorage Center
12:56AM 55.5675 176.4492 239° Southwest 507 583 35,000  Level FlightAware Transoceanic
12:56AM 55.5333 176.3833 236° Southwest 500 575 35,000  Level Anchorage Center
12:57AM 55.4946 176.2332 239° Southwest 507 583 35,000  Level FlightAware Transoceanic
12:57AM 55.4833 176.2000 244° Southwest 490 564 35,000  Level Anchorage Center
12:58AM 55.4213 176.0181 239° Southwest 507 583 35,000  Level FlightAware Transoceanic
12:58AM 55.4000 175.9667 238° Southwest 490 564 35,000  Level Anchorage Center
12:59AM 55.3333 175.7833 237° Southwest 490 564 35,000  Level Anchorage Center
01:00AM 55.2667 175.5667 242° Southwest 480 552 35,000  Level Anchorage Center
01:01AM 55.2000 175.4000 235° Southwest 490 564 35,000  Level Anchorage Center
01:02AM 55.1167 175.1667 238° Southwest 490 564 35,000  Level Anchorage Center
01:03AM 55.0500 174.9500 242° Southwest 490 564 35,000  Level Anchorage Center
01:04AM 54.9833 174.7833 235° Southwest 480 552 35,000  Level Anchorage Center
01:05AM 54.9000 174.5667 236° Southwest 480 552 35,000  Level Anchorage Center
01:06AM 54.8500 174.3833 245° Southwest 480 552 35,000  Level Anchorage Center
01:07AM 54.7667 174.1833 234° Southwest 480 552 35,000  Level Anchorage Center
01:08AM 54.7000 174.0167 235° Southwest 480 552 35,000  Level Anchorage Center
01:09AM 54.6167 173.8000 236° Southwest 480 552 35,000  Level Anchorage Center
01:10AM 54.5667 173.6333 243° Southwest 470 541 35,000  Level Anchorage Center
01:11AM 54.4833 173.4167 237° Southwest 490 564 35,000  Level Anchorage Center
01:12AM 54.4000 173.2167 234° Southwest 470 541 35,000  Level Anchorage Center
01:14AM 54.2667 172.8500 238° Southwest 460 529 35,000  Level Anchorage Center
01:15AM 54.2000 172.6833 236° Southwest 470 541 35,000  Level Anchorage Center
01:16AM 54.1167 172.4667 237° Southwest 490 564 35,000  Level Anchorage Center
01:17AM 54.0500 172.3167 233° Southwest 480 552 35,000  Level Anchorage Center
01:18AM 53.9667 172.1167 235° Southwest 480 552 35,000  Level Anchorage Center
01:19AM 53.8833 171.9167 235° Southwest 480 552 35,000  Level Anchorage Center
01:20AM 53.8167 171.7667 233° Southwest 470 541 35,000  Level Anchorage Center
01:21AM 53.7333 171.5667 235° Southwest 480 552 35,000  Level Anchorage Center
01:22AM 53.6667 171.4000 236° Southwest 490 564 35,000  Level Anchorage Center
01:23AM 53.5667 171.2000 230° Southwest 480 552 35,000  Level Anchorage Center
01:24AM 53.5000 171.0333 236° Southwest 490 564 35,000  Level Anchorage Center
01:25AM 53.4167 170.8500 233° Southwest 470 541 35,000  Level Anchorage Center
01:26AM 53.3333 170.6500 235° Southwest 490 564 35,000  Level Anchorage Center
01:27AM 53.2667 170.4833 236° Southwest 480 552 35,000  Level Anchorage Center
01:28AM 53.1833 170.3000 233° Southwest 480 552 35,000  Level Anchorage Center
01:29AM 53.1000 170.1333 230° Southwest 500 575 35,000  Level Anchorage Center
01:30AM 53.0167 169.9333 235° Southwest 490 564 35,000  Level Anchorage Center
01:31AM 52.9500 169.7833 234° Southwest 490 564 35,000  Level Anchorage Center
01:32AM 52.8833 169.5667 243° Southwest 470 541 35,000  Level Anchorage Center
01:33AM 52.8500 169.4167 250° West 440 506 35,000  Level Anchorage Center
01:34AM 52.7667 169.2000 238° Southwest 490 564 35,000  Level Anchorage Center
01:35AM 52.6833 169.0000 236° Southwest 480 552 35,000  Level Anchorage Center
01:36AM 52.6333 168.8333 244° Southwest 460 529 35,000  Level Anchorage Center
01:37AM 52.5667 168.6333 241° Southwest 470 541 35,000  Level Anchorage Center
01:38AM 52.5000 168.4667 237° Southwest 480 552 35,000  Level Anchorage Center
01:39AM 52.4333 168.2667 241° Southwest 480 552 35,000  Level Anchorage Center
01:40AM 52.3667 168.1000 237° Southwest 470 541 35,000  Level Anchorage Center
01:41AM 52.3000 167.9000 241° Southwest 480 552 35,000  Level Anchorage Center
01:42AM 52.2500 167.7333 244° Southwest 490 564 35,000 60 Level Anchorage Center
01:45AM 52.1448 167.4433 239° Southwest  Level FlightAware Approximate
01:52AM 51.6447 166.1281 239° Southwest  Level FlightAware Approximate
01:53AM 51.5721 165.9426 238° Southwest  Level FlightAware Approximate
01:54AM 51.4992 165.7577 238° Southwest  Level FlightAware Approximate
01:54AM 51.4333 165.5500 238° Southwest 476 548 36,000  Level Anchorage Center
01:55AM 51.4260 165.5733 238° Southwest  Level FlightAware Approximate
01:56AM 51.3540 165.3880 238° Southwest  Level FlightAware Approximate
01:56AM 51.3000 165.2333 237° Southwest 478 550 36,000  Level Anchorage Center
01:57AM 51.2821 165.2030 238° Southwest  Level FlightAware Approximate
01:58AM 51.2098 165.0187 238° Southwest  Level FlightAware Approximate
01:59AM 51.1372 164.8349 238° Southwest  Level FlightAware Approximate
02:00AM 50.9991 164.4744 237° Southwest 476 548 36,000  Level FlightAware Transoceanic
02:01AM 50.9257 164.2971 237° Southwest 476 548 36,000  Level FlightAware Transoceanic
02:01AM 50.9500 164.3833 237° Southwest 481 554 36,000  Level Anchorage Center
02:02AM 50.8602 164.1530 237° Southwest 478 550 36,000  Level FlightAware Transoceanic
02:03AM 50.7859 163.9749 236° Southwest 478 550 36,000  Level FlightAware Transoceanic
02:04AM 50.7114 163.7974 236° Southwest 478 550 36,000  Level FlightAware Transoceanic
02:05AM 50.6366 163.6205 236° Southwest 478 550 36,000  Level FlightAware Transoceanic
02:06AM 50.5615 163.4441 236° Southwest 478 550 36,000  Level FlightAware Transoceanic
02:07AM 50.4973 163.3031 236° Southwest 481 554 36,000  Level FlightAware Transoceanic
02:08AM 50.4209 163.1251 236° Southwest 481 554 36,000  Level FlightAware Transoceanic
02:09AM 50.3442 162.9477 236° Southwest 481 554 36,000  Level FlightAware Transoceanic
02:10AM 50.2673 162.7708 236° Southwest 481 554 36,000  Level FlightAware Transoceanic
02:11AM 50.1901 162.5945 236° Southwest 481 554 36,000  Level FlightAware Transoceanic
02:12AM 50.1126 162.4188 235° Southwest 481 554 36,000  Level FlightAware Transoceanic
02:13AM 50.0348 162.2436 235° Southwest 481 554 36,000  Level FlightAware Transoceanic
02:14AM 49.9568 162.0690 235° Southwest 481 554 36,000  Level FlightAware Transoceanic
02:15AM 49.8786 161.8950 235° Southwest 481 554 36,000  Level FlightAware Transoceanic
02:16AM 49.8000 161.7216 235° Southwest 481 554 36,000  Level FlightAware Transoceanic
02:17AM 49.7212 161.5487 235° Southwest 481 554 36,000  Level FlightAware Transoceanic
02:18AM 49.6422 161.3763 235° Southwest 481 554 36,000  Level FlightAware Transoceanic
02:19AM 49.5629 161.2045 234° Southwest 481 554 36,000  Level FlightAware Transoceanic
02:20AM 49.4833 161.0333 234° Southwest 481 554 36,000  Level FlightAware Transoceanic
02:20AM 49.4833 161.0333 234° Southwest 491 565 36,000  Level Anchorage Center
02:21AM 49.4034 160.8625 234° Southwest 481 554 36,000  Level FlightAware Transoceanic
02:22AM 49.3232 160.6922 234° Southwest 481 554 36,000  Level FlightAware Transoceanic
02:22AM 49.2667 160.5833 234° Southwest 511 588 36,000  Level Anchorage Center
02:23AM 49.2428 160.5225 234° Southwest 481 554 36,000  Level FlightAware Transoceanic
02:24AM 49.1621 160.3533 234° Southwest 481 554 36,000  Level FlightAware Transoceanic
02:25AM 49.0812 160.1847 234° Southwest 481 554 36,000  Level FlightAware Transoceanic
02:26AM 49.0000 160.0167 233° Southwest 491 565 36,000  Level FlightAware Transoceanic
02:27AM 48.9134 159.8400 233° Southwest 491 565 36,000  Level FlightAware Transoceanic
02:28AM 48.8265 159.6640 233° Southwest 491 565 36,000  Level FlightAware Transoceanic
02:29AM 48.7393 159.4886 233° Southwest 511 588 36,000  Level FlightAware Transoceanic
02:30AM 48.6519 159.3138 233° Southwest 511 588 36,000  Level FlightAware Transoceanic
02:31AM 48.5642 159.1396 233° Southwest 511 588 36,000  Level FlightAware Transoceanic
02:32AM 48.4762 158.9660 233° Southwest 511 588 36,000  Level FlightAware Transoceanic
02:33AM 48.3880 158.7931 232° Southwest 511 588 36,000  Level FlightAware Transoceanic
02:34AM 48.2996 158.6207 232° Southwest 511 588 36,000  Level FlightAware Transoceanic
02:35AM 48.2108 158.4489 232° Southwest 511 588 36,000  Level FlightAware Transoceanic
02:36AM 48.1218 158.2777 232° Southwest 511 588 36,000  Level FlightAware Transoceanic
02:37AM 48.0326 158.1071 232° Southwest 511 588 36,000  Level FlightAware Transoceanic
02:38AM 47.9431 157.9371 232° Southwest 511 588 36,000  Level FlightAware Transoceanic
02:39AM 47.8534 157.7677 232° Southwest 511 588 36,000  Level FlightAware Transoceanic
02:40AM 47.7634 157.5988 232° Southwest 511 588 36,000  Level FlightAware Transoceanic
02:41AM 47.6732 157.4306 231° Southwest 511 588 36,000  Level FlightAware Transoceanic
02:42AM 47.5827 157.2629 231° Southwest 511 588 36,000  Level FlightAware Transoceanic
02:43AM 47.4920 157.0958 231° Southwest 511 588 36,000  Level FlightAware Transoceanic
02:44AM 47.4010 156.9293 231° Southwest 511 588 36,000  Level FlightAware Transoceanic
02:45AM 47.3098 156.7634 231° Southwest 511 588 36,000  Level FlightAware Transoceanic
02:46AM 47.2184 156.5980 231° Southwest 511 588 36,000  Level FlightAware Transoceanic
02:47AM 47.1267 156.4332 231° Southwest 511 588 36,000  Level FlightAware Transoceanic
02:48AM 47.0348 156.2690 231° Southwest 511 588 36,000  Level FlightAware Transoceanic
02:49AM 46.9426 156.1053 230° Southwest 511 588 36,000  Level FlightAware Transoceanic
02:50AM 46.8502 155.9422 230° Southwest 511 588 36,000  Level FlightAware Transoceanic
02:51AM 46.7576 155.7797 230° Southwest 511 588 36,000  Level FlightAware Transoceanic
02:52AM 46.6648 155.6177 230° Southwest 511 588 36,000  Level FlightAware Transoceanic
02:53AM 46.5717 155.4563 230° Southwest 511 588 36,000  Level FlightAware Transoceanic
02:54AM 46.4784 155.2954 230° Southwest 511 588 36,000  Level FlightAware Transoceanic
02:55AM 46.3849 155.1351 230° Southwest 511 588 36,000  Level FlightAware Transoceanic
02:56AM 46.2911 154.9753 230° Southwest 511 588 36,000  Level FlightAware Transoceanic
02:57AM 46.1972 154.8161 229° Southwest 511 588 36,000  Level FlightAware Transoceanic
02:58AM 46.1030 154.6574 229° Southwest 511 588 36,000  Level FlightAware Transoceanic
02:59AM 46.0086 154.4993 229° Southwest 511 588 36,000  Level FlightAware Transoceanic
03:00AM 45.9140 154.3417 229° Southwest 511 588 36,000  Level FlightAware Transoceanic
03:01AM 45.8191 154.1846 229° Southwest 511 588 36,000  Level FlightAware Transoceanic
03:02AM 45.7241 154.0281 229° Southwest 511 588 36,000  Level FlightAware Transoceanic
03:03AM 45.6288 153.8721 229° Southwest 511 588 36,000  Level FlightAware Transoceanic
03:04AM 45.5315 153.7371 224° Southwest  Level FlightAware Approximate
03:05AM 45.4340 153.6026 224° Southwest  Level FlightAware Approximate
03:06AM 45.4459 153.6032 228° Southwest  Level FlightAware Approximate
03:07AM 45.3556 153.4591 228° Southwest  Level FlightAware Approximate
03:08AM 45.2651 153.3154 228° Southwest  Level FlightAware Approximate
03:09AM 45.1744 153.1722 228° Southwest  Level FlightAware Approximate
03:10AM 45.0835 153.0294 228° Southwest  Level FlightAware Approximate
03:11AM 44.9925 152.8871 228° Southwest  Level FlightAware Approximate
03:12AM 44.9013 152.7452 228° Southwest  Level FlightAware Approximate
03:13AM 44.8099 152.6038 228° Southwest  Level FlightAware Approximate
03:14AM 44.7183 152.4628 228° Southwest  Level FlightAware Approximate
03:15AM 44.6266 152.3223 227° Southwest  Level FlightAware Approximate
03:16AM 44.5347 152.1822 227° Southwest  Level FlightAware Approximate
03:17AM 44.4426 152.0425 227° Southwest  Level FlightAware Approximate
03:18AM 44.3503 151.9033 227° Southwest  Level FlightAware Approximate
03:19AM 44.2579 151.7646 227° Southwest  Level FlightAware Approximate
03:20AM 44.1661 151.6273 227° Southwest  Level FlightAware Approximate
03:21AM 44.0740 151.4905 227° Southwest  Level FlightAware Approximate
03:22AM 43.9818 151.3541 227° Southwest  Level FlightAware Approximate
03:23AM 43.8894 151.2179 227° Southwest  Level FlightAware Approximate
03:24AM 43.7967 151.0822 227° Southwest  Level FlightAware Approximate
03:25AM 43.7039 150.9469 227° Southwest  Level FlightAware Approximate
03:26AM 43.6110 150.8120 226° Southwest  Level FlightAware Approximate
03:27AM 43.5178 150.6775 226° Southwest  Level FlightAware Approximate
03:28AM 43.4246 150.5434 226° Southwest  Level FlightAware Approximate
03:29AM 43.3312 150.4098 226° Southwest  Level FlightAware Approximate
03:29AM 42.9670 149.8530 226° Southwest 559 643 36,900  Level FlightAware
03:30AM 43.2376 150.2765 226° Southwest  Level FlightAware Approximate
03:30AM 42.9040 149.7670 225° Southwest 559 643 36,900  Level FlightAware
03:30AM 42.8480 149.6910 225° Southwest 559 643 36,900  Level FlightAware
03:31AM 42.7510 149.5510 227° Southwest 553 636 36,900  Level FlightAware
03:32AM 42.6970 149.4750 226° Southwest 553 636 36,900  Level FlightAware
03:33AM 42.6010 149.3460 225° Southwest 553 636 36,900  Level FlightAware
03:33AM 42.5140 149.2260 225° Southwest 554 638 36,900  Level FlightAware
03:34AM 42.4210 149.1000 225° Southwest 554 638 36,900  Level FlightAware
03:35AM 42.3440 148.9950 225° Southwest 555 639 36,900  Level FlightAware
03:36AM 42.2620 148.8840 225° Southwest 555 639 36,900  Level FlightAware
03:36AM 42.1860 148.7820 225° Southwest 556 640 36,900  Level FlightAware
03:37AM 42.1050 148.6730 225° Southwest 556 640 36,900  Level FlightAware
03:38AM 42.0290 148.5720 225° Southwest 555 639 36,900  Level FlightAware
03:38AM 41.9560 148.4740 225° Southwest 555 639 36,900  Level FlightAware
03:39AM 41.8770 148.3690 225° Southwest 554 638 36,900  Level FlightAware
03:40AM 41.7990 148.2660 225° Southwest 553 636 36,900  Level FlightAware
03:40AM 41.7250 148.1670 225° Southwest 559 643 36,900  Level FlightAware
03:41AM 41.6420 148.0610 224° Southwest 559 643 36,900  Level FlightAware
03:42AM 41.5680 147.9660 224° Southwest 558 642 36,900  Level FlightAware
03:43AM 41.4840 147.8580 224° Southwest 557 641 36,900  Level FlightAware
03:43AM 41.3920 147.7430 223° Southwest 557 641 36,900  Level FlightAware
03:44AM 41.3060 147.6330 224° Southwest 556 640 36,900  Level FlightAware
03:45AM 41.2240 147.5290 224° Southwest 556 640 36,900  Level FlightAware
03:46AM 41.1390 147.4210 224° Southwest 555 639 36,900  Level FlightAware
03:46AM 41.0710 147.3340 224° Southwest 554 638 36,900  Level FlightAware
03:47AM 40.9600 147.1970 223° Southwest 553 636 36,900  Level FlightAware
03:48AM 40.8630 147.0770 223° Southwest 552 635 36,900  Level FlightAware
03:49AM 40.8060 147.0060 223° Southwest 552 635 36,900  Level FlightAware
03:50AM 40.7280 146.9100 223° Southwest 552 635 36,900  Level FlightAware
03:50AM 40.6710 146.8400 223° Southwest 552 635 36,900  Level FlightAware
03:51AM 40.5950 146.7460 223° Southwest 552 635 36,900  Level FlightAware
03:52AM 40.5360 146.6740 223° Southwest 552 635 36,900  Level FlightAware
03:52AM 40.4780 146.6020 223° Southwest 552 635 36,900  Level FlightAware
03:53AM 40.2860 146.3660 223° Southwest 546 628 36,900  Level FlightAware
03:54AM 40.2100 146.2720 223° Southwest 537 618 36,900  Level FlightAware
03:55AM 40.1470 146.1970 222° Southwest 532 612 36,900 60 Level FlightAware
03:55AM 40.0710 146.1050 223° Southwest 532 612 37,000  Climbing FlightAware
03:56AM 39.9850 146.0010 223° Southwest 532 612 36,900 -120 Descending FlightAware
03:57AM 39.9120 145.9160 222° Southwest 513 590 36,900  Level FlightAware
03:58AM 39.8360 145.8230 223° Southwest 509 586 36,900  Level FlightAware
03:58AM 39.7820 145.7580 223° Southwest 509 586 36,900  Level FlightAware
03:59AM 39.7110 145.6720 223° Southwest 509 586 36,900  Level FlightAware
04:00AM 39.6590 145.6090 223° Southwest 509 586 36,900  Level FlightAware
04:00AM 39.6050 145.5430 223° Southwest 509 586 36,900  Level FlightAware
04:01AM 39.5340 145.4580 223° Southwest 509 586 36,900  Level FlightAware
04:02AM 39.4670 145.3770 223° Southwest 509 586 36,900  Level FlightAware
04:02AM 39.4140 145.3130 223° Southwest 509 586 36,900  Level FlightAware
04:03AM 39.3420 145.2270 223° Southwest 509 586 36,900  Level FlightAware
04:04AM 39.2880 145.1610 223° Southwest 509 586 36,900  Level FlightAware
04:05AM 39.2180 145.0770 223° Southwest 509 586 36,900  Level FlightAware
04:05AM 39.1640 145.0120 223° Southwest 509 586 36,900  Level FlightAware
04:06AM 39.1110 144.9480 223° Southwest 509 586 36,900  Level FlightAware
04:07AM 39.0410 144.8640 223° Southwest 509 586 36,900  Level FlightAware
04:09AM 38.8343 144.6803 215° Southwest  Level FlightAware Approximate
04:10AM 38.7290 144.5693 222° Southwest  Level FlightAware Approximate
04:11AM 38.6282 144.4551 222° Southwest  Level FlightAware Approximate
04:12AM 38.5273 144.3412 221° Southwest  Level FlightAware Approximate
04:13AM 38.4262 144.2276 221° Southwest  Level FlightAware Approximate
04:14AM 38.3251 144.1143 221° Southwest  Level FlightAware Approximate
04:15AM 38.2238 144.0014 221° Southwest  Level FlightAware Approximate
04:16AM 38.1224 143.8888 221° Southwest  Level FlightAware Approximate
04:17AM 38.0210 143.7764 221° Southwest  Level FlightAware Approximate
04:18AM 37.9194 143.6644 221° Southwest  Level FlightAware Approximate
04:19AM 37.8177 143.5527 221° Southwest  Level FlightAware Approximate
04:20AM 37.7059 143.4583 212° Southwest  Level FlightAware Approximate
04:21AM 37.5920 143.3678 212° Southwest  Level FlightAware Approximate
04:21AM 37.5730 143.3430 212° Southwest 450 518 36,900  Level FlightAware
04:22AM 37.5000 143.2910 209° Southwest 449 517 36,900 -120 Level FlightAware
04:22AM 37.4210 143.2330 210° Southwest 449 517 36,800 -660 Descending FlightAware
04:23AM 37.3490 143.1810 210° Southwest 453 521 36,000 -660 Descending FlightAware
04:24AM 37.2660 143.1200 210° Southwest 457 526 35,900 -120 Descending FlightAware
04:24AM 37.1900 143.0660 210° Southwest 456 525 35,900  Level FlightAware
04:25AM 37.1170 143.0130 210° Southwest 457 526 35,900  Level FlightAware
04:26AM 37.0430 142.9610 209° Southwest 458 527 35,900  Level FlightAware
04:26AM 36.9790 142.9150 210° Southwest 458 527 35,900  Level FlightAware
04:27AM 36.8840 142.8480 209° Southwest 457 526 35,900  Level FlightAware
04:28AM 36.8120 142.7960 210° Southwest 457 526 35,900  Level FlightAware
04:29AM 36.7280 142.7370 209° Southwest 459 528 35,900  Level FlightAware
04:29AM 36.6530 142.6850 209° Southwest 460 529 35,900  Level FlightAware
04:30AM 36.5710 142.6270 210° Southwest 459 528 35,900  Level FlightAware
04:31AM 36.5100 142.5840 210° Southwest 460 529 35,900 -240 Level FlightAware
04:31AM 36.4300 142.5280 209° Southwest 450 518 35,600 -780 Descending FlightAware
04:32AM 36.3430 142.4670 209° Southwest 449 517 34,800 -1,320 Descending FlightAware
04:33AM 36.2710 142.4170 209° Southwest 457 526 33,800 -1,440 Descending FlightAware
04:33AM 36.1930 142.3630 209° Southwest 460 529 32,900 -1,260 Descending FlightAware
04:34AM 36.1300 142.3200 209° Southwest 464 534 32,100 -1,380 Descending FlightAware
04:35AM 36.0440 142.2600 209° Southwest 464 534 31,100 -2,280 Descending FlightAware
04:36AM 35.9510 142.1950 210° Southwest 457 526 28,800 -2,760 Descending FlightAware
04:36AM 35.8920 142.1550 209° Southwest 449 517 27,200 -2,880 Descending FlightAware
04:37AM 35.8610 142.1240 219° Southwest 447 514 26,200 -2,640 Descending FlightAware
04:37AM 35.8450 142.0930 238° Southwest 443 510 25,800 -1,860 Descending FlightAware
04:37AM 35.8410 141.9990 267° West 442 509 24,600 -2,460 Descending FlightAware
04:38AM 35.8370 141.8840 268° West 436 502 22,500 -2,760 Descending FlightAware
04:39AM 35.8370 141.7910 270° West 429 494 20,900 -2,700 Descending FlightAware
04:40AM 35.8390 141.6800 271° West 419 482 18,700 -2,760 Descending FlightAware
04:40AM 35.8410 141.5880 272° West 410 472 17,000 -2,640 Descending FlightAware
04:41AM 35.8430 141.4810 271° West 396 456 15,000 -2,580 Descending FlightAware
04:42AM 35.8440 141.3920 271° West 384 442 13,400 -2,220 Descending FlightAware
04:42AM 35.8450 141.2960 271° West 366 421 11,900 -1,680 Descending FlightAware
04:43AM 35.8460 141.2150 271° West 344 396 11,100 -780 Descending FlightAware
04:44AM 35.8470 141.1340 271° West 306 352 10,800 -480 Descending FlightAware
04:44AM 35.8400 141.0710 262° West 269 310 10,500 -1,260 Descending FlightAware
04:45AM 35.8170 141.0320 234° Southwest 284 327 9,400 -1,560 Descending FlightAware
04:45AM 35.7970 140.9970 235° Southwest 293 337 9,100 -480 Descending FlightAware
04:46AM 35.7840 140.9620 245° Southwest 294 338 9,000 -120 Descending FlightAware
04:46AM 35.7740 140.9190 254° West 294 338 9,000  Level FlightAware
04:47AM 35.7620 140.8640 255° West 270 311 9,000  Level FlightAware
04:47AM 35.7530 140.8210 256° West 272 313 9,000  Level FlightAware
04:48AM 35.7600 140.7630 278° West 278 320 9,000  Level FlightAware
04:48AM 35.7690 140.7500 310° West 276 318 9,000  Level FlightAware
04:49AM 35.7990 140.7120 314° West 275 316 9,000 -420 Level FlightAware
04:49AM 35.8250 140.6780 313° West 8,900 -660 Descending FlightAware
04:50AM 35.8550 140.6380 313° West 271 312 8,300 -900 Descending FlightAware
04:50AM 35.8810 140.6050 314° West 269 310 8,000 -480 Descending FlightAware
04:51AM 35.9040 140.5750 313° West 268 308 7,900 -660 Descending FlightAware
04:51AM 35.9260 140.5410 309° West 262 302 7,400 -1,020 Descending FlightAware
04:52AM 35.9380 140.5080 294° West 250 288 7,000 -1,200 Descending FlightAware
04:52AM 35.9540 140.4620 293° West 239 275 6,200 -1,020 Descending FlightAware
04:53AM 35.9640 140.4300 291° West 239 275 6,000 -960 Descending FlightAware
04:53AM 35.9750 140.3990 294° West 235 270 5,400 -1,200 Descending FlightAware
04:53AM 35.9830 140.3670 287° West 229 264 5,000 -840 Descending FlightAware
04:54AM 35.9800 140.3270 265° West 204 235 4,600 -1,140 Descending FlightAware
04:54AM 35.9740 140.2980 256° West 204 235 3,900 -1,440 Descending FlightAware
04:55AM 35.9580 140.2710 234° Southwest 198 228 3,300 -1,200 Descending FlightAware
04:55AM 35.9440 140.2650 199° South 192 221 3,000 -900 Descending FlightAware
04:56AM 35.9270 140.2600 193° South 193 222 2,800 -300 Descending FlightAware
04:56AM 35.9110 140.2680 158° South 193 222 2,800  Level FlightAware
04:56AM 35.9050 140.2730 146° Southeast 179 206 2,800 -420 Level FlightAware
04:57AM 35.8800 140.2920 148° Southeast 170 196 2,500 -720 Descending FlightAware
04:57AM 35.8630 140.3040 150° Southeast 169 194 2,100 -900 Descending FlightAware
04:58AM 35.8430 140.3180 150° Southeast 168 193 1,700 -780 Descending FlightAware
04:58AM 35.8270 140.3300 149° Southeast 143 165 1,400 -780 Descending FlightAware
04:58AM 35.8120 140.3410 149° Southeast 140 161 1,000 -840 Descending FlightAware
05:01AM 35.7647 140.3864 253° West  Level Estimated
05:02AM 35.7647 140.3864 253° West  Level Estimated